createdAt,value
2023-04-29T00:00:53.451Z,2.40
2023-04-29T00:03:23.578Z,11.10
2023-04-29T00:05:52.953Z,1.90
2023-04-29T00:08:23.889Z,2.50
2023-04-29T00:10:53.845Z,7.80
2023-04-29T00:13:22.404Z,1.47
2023-04-29T00:15:51.968Z,5.10
2023-04-29T00:18:20.848Z,1.80
2023-04-29T00:20:50.217Z,2.07
2023-04-29T00:23:20.253Z,2.00
2023-04-29T00:25:54.102Z,2.50
2023-04-29T00:28:24.065Z,8.50
2023-04-29T00:30:54.595Z,4.93
2023-04-29T00:33:24.802Z,3.20
2023-04-29T00:35:54.667Z,1.20
2023-04-29T00:38:24.549Z,3.70
2023-04-29T00:40:57.207Z,6.73
2023-04-29T00:43:27.558Z,3.33
2023-04-29T00:45:57.784Z,2.43
2023-04-29T00:48:27.288Z,3.33
2023-04-29T00:50:56.956Z,1.20
2023-04-29T00:53:26.637Z,1.53
2023-04-29T00:55:58.979Z,5.10
2023-04-29T00:58:33.206Z,1.00
2023-04-29T01:01:03.972Z,6.73
2023-04-29T01:03:34.387Z,1.20
2023-04-29T01:06:19.221Z,1.17
2023-04-29T01:09:06.580Z,1.13
2023-04-29T01:11:55.873Z,9.93
2023-04-29T01:14:27.836Z,3.93
2023-04-29T01:17:07.328Z,1.40
2023-04-29T01:19:48.015Z,1.50
2023-04-29T01:22:18.392Z,1.97
2023-04-29T01:24:49.425Z,1.13
2023-04-29T01:27:32.902Z,1.73
2023-04-29T01:30:14.458Z,1.20
2023-04-29T01:32:55.595Z,1.10
2023-04-29T01:35:57.123Z,1.20
2023-04-29T01:38:38.876Z,1.53
2023-04-29T01:41:16.676Z,1.50
2023-04-29T01:43:52.643Z,1.17
2023-04-29T01:46:23.110Z,3.53
2023-04-29T01:48:56.135Z,1.20
2023-04-29T01:51:26.201Z,1.50
2023-04-29T01:53:56.434Z,1.40
2023-04-29T01:56:28.067Z,2.47
2023-04-29T01:58:57.406Z,1.50
2023-04-29T02:01:27.893Z,1.63
2023-04-29T02:03:58.065Z,2.23
2023-04-29T02:06:28.646Z,3.43
2023-04-29T02:08:59.086Z,2.37
2023-04-29T02:11:30.548Z,2.03
2023-04-29T02:13:59.907Z,3.23
2023-04-29T02:16:28.832Z,7.63
2023-04-29T02:18:59.416Z,1.67
2023-04-29T02:21:29.888Z,1.33
2023-04-29T02:24:00.089Z,3.17
2023-04-29T02:26:30.983Z,1.63
2023-04-29T02:29:02.281Z,3.87
2023-04-29T02:31:32.361Z,1.40
2023-04-29T02:34:02.970Z,1.30
2023-04-29T02:36:32.681Z,1.90
2023-04-29T02:39:02.267Z,2.53
2023-04-29T02:41:33.714Z,10.60
2023-04-29T02:44:03.671Z,2.90
2023-04-29T02:46:36.178Z,2.17
2023-04-29T02:49:06.492Z,1.60
2023-04-29T02:51:35.464Z,2.13
2023-04-29T02:54:04.406Z,5.80
2023-04-29T02:56:36.173Z,2.80
2023-04-29T02:59:05.572Z,1.80
2023-04-29T03:01:36.268Z,7.53
2023-04-29T03:04:06.862Z,5.43
2023-04-29T03:06:36.458Z,5.03
2023-04-29T03:09:06.910Z,5.10
2023-04-29T03:11:37.764Z,2.90
2023-04-29T03:14:07.452Z,7.20
2023-04-29T03:16:36.941Z,2.87
2023-04-29T03:19:07.168Z,4.00
2023-04-29T03:21:38.326Z,4.50
2023-04-29T03:24:08.730Z,3.43
2023-04-29T03:26:39.685Z,4.40
2023-04-29T03:29:08.044Z,7.40
2023-04-29T03:31:37.405Z,4.10
2023-04-29T03:34:08.346Z,4.13
2023-04-29T03:36:38.563Z,9.47
2023-04-29T03:39:08.594Z,6.33
2023-04-29T03:41:40.152Z,5.83
2023-04-29T03:44:10.850Z,5.93
2023-04-29T03:46:42.033Z,4.17
2023-04-29T03:49:12.210Z,4.17
2023-04-29T03:51:41.845Z,8.60
2023-04-29T03:54:12.324Z,7.63
2023-04-29T03:56:44.257Z,10.27
2023-04-29T03:59:15.280Z,5.87
2023-04-29T04:01:44.312Z,8.03
2023-04-29T04:04:16.051Z,5.73
2023-04-29T04:06:51.310Z,5.07
2023-04-29T04:09:20.923Z,5.90
2023-04-29T04:11:52.784Z,4.13
2023-04-29T04:14:22.258Z,3.67
2023-04-29T04:16:51.889Z,5.90
2023-04-29T04:19:21.407Z,6.77
2023-04-29T04:21:51.395Z,6.40
2023-04-29T04:24:21.910Z,6.70
2023-04-29T04:26:53.461Z,4.93
2023-04-29T04:29:23.342Z,9.60
2023-04-29T04:31:53.300Z,6.20
2023-04-29T04:34:23.260Z,6.93
2023-04-29T04:36:54.237Z,5.60
2023-04-29T04:39:23.550Z,10.03
2023-04-29T04:41:55.135Z,8.10
2023-04-29T04:44:25.134Z,10.63
2023-04-29T04:46:54.000Z,7.33
2023-04-29T04:49:25.465Z,9.30
2023-04-29T04:51:55.097Z,12.80
2023-04-29T04:54:25.230Z,7.07
2023-04-29T04:56:57.147Z,9.23
2023-04-29T04:59:26.710Z,9.80
2023-04-29T05:01:56.084Z,9.10
2023-04-29T05:04:25.461Z,13.50
2023-04-29T05:06:55.408Z,17.27
2023-04-29T05:09:27.596Z,16.80
2023-04-29T05:11:59.912Z,9.20
2023-04-29T05:14:29.531Z,7.23
2023-04-29T05:17:01.667Z,10.37
2023-04-29T05:19:32.353Z,8.47
2023-04-29T05:22:02.334Z,14.17
2023-04-29T05:24:31.293Z,23.80
2023-04-29T05:27:04.847Z,9.07
2023-04-29T05:29:34.457Z,13.53
2023-04-29T05:32:05.059Z,9.90
2023-04-29T05:34:34.407Z,15.13
2023-04-29T05:37:04.880Z,9.60
2023-04-29T05:39:33.651Z,8.43
2023-04-29T05:42:05.762Z,11.53
2023-04-29T05:44:36.837Z,14.03
2023-04-29T05:47:05.713Z,8.63
2023-04-29T05:49:36.289Z,9.57
2023-04-29T05:52:07.422Z,11.90
2023-04-29T05:54:37.662Z,8.10
2023-04-29T05:57:07.936Z,15.20
2023-04-29T05:59:37.851Z,11.33
2023-04-29T06:02:07.398Z,9.93
2023-04-29T06:04:48.516Z,9.40
2023-04-29T06:07:20.217Z,9.47
2023-04-29T06:09:49.567Z,12.57
2023-04-29T06:12:21.034Z,10.57
2023-04-29T06:14:51.644Z,14.07
2023-04-29T06:17:21.125Z,10.40
2023-04-29T06:19:50.090Z,19.60
2023-04-29T06:22:19.976Z,10.80
2023-04-29T06:24:49.836Z,9.70
2023-04-29T06:27:20.810Z,9.93
2023-04-29T06:29:52.005Z,9.83
2023-04-29T06:32:22.123Z,11.27
2023-04-29T06:34:53.029Z,10.23
2023-04-29T06:37:22.508Z,10.03
2023-04-29T06:39:52.853Z,11.97
2023-04-29T06:42:25.190Z,20.30
2023-04-29T06:44:55.049Z,11.20
2023-04-29T06:47:24.458Z,8.93
2023-04-29T06:49:55.194Z,12.20
2023-04-29T06:52:25.882Z,9.93
2023-04-29T06:54:55.411Z,9.80
2023-04-29T06:57:26.256Z,8.53
2023-04-29T06:59:56.685Z,8.17
2023-04-29T07:02:26.893Z,11.93
2023-04-29T07:04:58.118Z,6.63
2023-04-29T07:07:28.312Z,6.67
2023-04-29T07:09:58.406Z,7.03
2023-04-29T07:12:29.864Z,6.67
2023-04-29T07:15:00.484Z,5.90
2023-04-29T07:17:32.990Z,35.90
2023-04-29T07:20:02.637Z,11.13
2023-04-29T07:22:31.647Z,4.57
2023-04-29T07:25:01.574Z,6.37
2023-04-29T07:27:32.072Z,5.50
2023-04-29T07:30:02.588Z,5.93
2023-04-29T07:32:32.840Z,4.70
2023-04-29T07:35:03.246Z,7.70
2023-04-29T07:37:33.154Z,6.00
2023-04-29T07:40:03.791Z,5.17
2023-04-29T07:42:34.671Z,6.50
2023-04-29T07:45:04.701Z,3.97
2023-04-29T07:47:33.527Z,5.90
2023-04-29T07:50:02.567Z,7.30
2023-04-29T07:52:33.080Z,4.80
2023-04-29T07:55:02.983Z,4.83
2023-04-29T07:57:33.723Z,5.00
2023-04-29T08:00:03.358Z,4.30
2023-04-29T08:02:34.236Z,4.20
2023-04-29T08:05:04.347Z,8.07
2023-04-29T08:07:35.164Z,3.47
2023-04-29T08:10:04.654Z,5.40
2023-04-29T08:12:35.396Z,4.13
2023-04-29T08:15:09.520Z,3.93
2023-04-29T08:17:40.218Z,3.03
2023-04-29T08:20:13.420Z,5.17
2023-04-29T08:22:43.016Z,4.87
2023-04-29T08:25:14.199Z,2.80
2023-04-29T08:27:45.985Z,4.63
2023-04-29T08:30:16.921Z,2.83
2023-04-29T08:32:45.894Z,3.53
2023-04-29T08:35:15.791Z,2.87
2023-04-29T08:37:45.233Z,5.53
2023-04-29T08:40:16.088Z,5.07
2023-04-29T08:42:48.948Z,3.90
2023-04-29T08:45:26.058Z,4.90
2023-04-29T08:47:57.931Z,4.70
2023-04-29T08:50:27.971Z,3.50
2023-04-29T08:52:57.362Z,3.00
2023-04-29T08:55:28.229Z,3.70
2023-04-29T08:57:59.781Z,5.20
2023-04-29T09:00:28.233Z,4.33
2023-04-29T09:03:01.372Z,3.83
2023-04-29T09:05:31.397Z,4.07
2023-04-29T09:08:03.316Z,3.50
2023-04-29T09:10:33.966Z,3.30
2023-04-29T09:13:04.734Z,3.87
2023-04-29T09:15:40.456Z,6.00
2023-04-29T09:18:09.456Z,3.57
2023-04-29T09:20:39.582Z,3.23
2023-04-29T09:23:10.009Z,2.53
2023-04-29T09:25:39.896Z,3.10
2023-04-29T09:28:19.252Z,3.13
2023-04-29T09:30:51.331Z,2.70
2023-04-29T09:33:21.647Z,3.40
2023-04-29T09:35:51.788Z,2.90
2023-04-29T09:38:23.347Z,3.47
2023-04-29T09:40:59.588Z,5.60
2023-04-29T09:43:31.578Z,6.50
2023-04-29T09:46:00.062Z,5.00
2023-04-29T09:48:35.518Z,3.37
2023-04-29T09:51:06.149Z,3.83
2023-04-29T09:53:38.252Z,4.40
2023-04-29T09:56:09.938Z,2.83
2023-04-29T09:58:41.100Z,3.07
2023-04-29T10:01:13.972Z,4.10
2023-04-29T10:03:45.593Z,3.33
2023-04-29T10:06:15.556Z,2.37
2023-04-29T10:08:46.817Z,2.83
2023-04-29T10:11:17.810Z,2.23
2023-04-29T10:13:51.616Z,3.63
2023-04-29T10:16:40.169Z,2.80
2023-04-29T10:19:17.287Z,2.73
2023-04-29T10:24:19.164Z,3.23
2023-04-29T10:26:53.102Z,4.30
2023-04-29T10:29:27.507Z,4.60
2023-04-29T10:31:59.554Z,3.33
2023-04-29T10:34:30.829Z,3.03
2023-04-29T10:36:59.934Z,3.20
2023-04-29T10:39:41.757Z,4.60
2023-04-29T10:42:25.960Z,4.03
2023-04-29T10:45:22.295Z,3.20
2023-04-29T10:48:19.413Z,6.93
2023-04-29T10:51:04.389Z,5.03
2023-04-29T10:53:33.702Z,4.60
2023-04-29T10:56:11.126Z,3.87
2023-04-29T10:58:47.248Z,19.60
2023-04-29T11:01:20.649Z,3.97
2023-04-29T11:04:01.940Z,3.70
2023-04-29T11:06:44.155Z,3.50
2023-04-29T11:09:17.176Z,3.37
2023-04-29T11:11:59.126Z,3.30
2023-04-29T11:14:31.348Z,4.37
2023-04-29T11:17:04.848Z,4.50
2023-04-29T11:19:37.265Z,8.13
2023-04-29T11:22:15.273Z,6.67
2023-04-29T11:24:53.448Z,6.63
2023-04-29T11:27:26.398Z,3.67
2023-04-29T11:29:58.705Z,3.23
2023-04-29T11:32:32.697Z,3.80
2023-04-29T11:35:13.600Z,6.20
2023-04-29T11:37:45.471Z,5.73
2023-04-29T11:40:17.504Z,4.90
2023-04-29T11:42:50.498Z,4.70
2023-04-29T11:45:20.904Z,3.60
2023-04-29T11:47:55.468Z,4.50
2023-04-29T11:50:26.726Z,4.30
2023-04-29T11:53:00.027Z,4.13
2023-04-29T11:55:32.447Z,5.53
2023-04-29T11:58:02.986Z,2.93
2023-04-29T12:00:33.475Z,3.10
2023-04-29T12:03:10.356Z,4.37
2023-04-29T12:05:40.093Z,3.53
2023-04-29T12:08:10.141Z,2.83
2023-04-29T12:10:40.595Z,3.83
2023-04-29T12:13:11.315Z,3.83
2023-04-29T12:15:41.495Z,2.83
2023-04-29T12:18:13.261Z,3.73
2023-04-29T12:20:43.500Z,13.47
2023-04-29T12:23:17.086Z,2.60
2023-04-29T12:25:51.824Z,4.27
2023-04-29T12:28:23.473Z,5.40
2023-04-29T12:30:55.669Z,3.50
2023-04-29T12:33:28.840Z,2.67
2023-04-29T12:36:00.894Z,3.70
2023-04-29T12:38:33.117Z,38.13
2023-04-29T12:41:03.022Z,3.50
2023-04-29T12:43:34.724Z,2.80
2023-04-29T12:46:07.026Z,3.07
2023-04-29T12:48:39.274Z,4.43
2023-04-29T12:51:12.199Z,2.37
2023-04-29T12:53:41.821Z,3.97
2023-04-29T12:56:13.969Z,53.27
2023-04-29T12:58:43.569Z,4.50
2023-04-29T13:01:14.405Z,3.30
2023-04-29T13:03:49.847Z,3.93
2023-04-29T13:06:19.690Z,3.80
2023-04-29T13:08:51.521Z,2.17
2023-04-29T13:11:21.379Z,2.17
2023-04-29T13:13:50.346Z,2.23
2023-04-29T13:16:20.312Z,1.90
2023-04-29T13:19:05.308Z,1.53
2023-04-29T13:21:38.476Z,2.80
2023-04-29T13:24:08.625Z,1.50
2023-04-29T13:26:39.535Z,3.13
2023-04-29T13:29:09.936Z,2.50
2023-04-29T13:31:38.823Z,2.70
2023-04-29T13:34:10.308Z,3.30
2023-04-29T13:36:39.193Z,2.00
2023-04-29T13:39:09.645Z,2.73
2023-04-29T13:41:44.278Z,2.00
2023-04-29T13:44:27.393Z,5.80
2023-04-29T13:47:02.307Z,2.70
2023-04-29T13:52:50.570Z,2.70
2023-04-29T13:58:30.333Z,3.30
2023-04-29T14:00:45.467Z,3.00
2023-04-29T14:03:08.558Z,3.17
2023-04-29T14:05:40.316Z,4.10
2023-04-29T14:08:11.082Z,4.00
2023-04-29T14:10:40.574Z,3.80
2023-04-29T14:13:10.083Z,4.83
2023-04-29T14:15:40.174Z,3.80
2023-04-29T14:18:12.309Z,4.70
2023-04-29T14:20:43.019Z,4.70
2023-04-29T14:23:12.511Z,4.13
2023-04-29T14:25:41.893Z,3.27
2023-04-29T14:28:13.260Z,5.47
2023-04-29T14:30:46.208Z,5.50
2023-04-29T14:33:16.134Z,4.63
2023-04-29T14:35:47.792Z,4.80
2023-04-29T14:38:18.032Z,5.50
2023-04-29T14:40:48.150Z,3.40
2023-04-29T14:43:19.088Z,4.23
2023-04-29T14:45:48.574Z,4.63
2023-04-29T14:48:18.068Z,4.63
2023-04-29T14:50:49.235Z,2.97
2023-04-29T14:53:19.319Z,4.70
2023-04-29T14:55:51.484Z,4.63
2023-04-29T14:58:21.279Z,6.90
2023-04-29T15:00:52.094Z,5.27
2023-04-29T15:03:23.072Z,6.87
2023-04-29T15:05:55.449Z,4.73
2023-04-29T15:08:24.598Z,4.90
2023-04-29T15:10:53.073Z,5.37
2023-04-29T15:13:22.291Z,5.20
2023-04-29T15:15:52.086Z,6.60
2023-04-29T15:18:23.297Z,5.03
2023-04-29T15:20:54.109Z,4.47
2023-04-29T15:23:24.031Z,5.00
2023-04-29T15:25:54.548Z,6.90
2023-04-29T15:28:26.401Z,5.60
2023-04-29T15:30:55.000Z,4.60
2023-04-29T15:33:24.477Z,5.27
2023-04-29T15:35:55.159Z,5.20
2023-04-29T15:38:24.103Z,5.87
2023-04-29T15:40:59.531Z,4.23
2023-04-29T15:43:30.506Z,6.30
2023-04-29T15:46:01.291Z,8.27
2023-04-29T15:48:31.572Z,5.93
2023-04-29T15:51:03.870Z,5.57
2023-04-29T15:53:32.765Z,8.30
2023-04-29T15:56:02.295Z,10.13
2023-04-29T15:58:32.273Z,6.27
2023-04-29T16:01:02.256Z,5.60
2023-04-29T16:03:32.864Z,5.47
2023-04-29T16:06:04.447Z,7.13
2023-04-29T16:08:34.145Z,5.00
2023-04-29T16:11:04.346Z,7.97
2023-04-29T16:13:36.503Z,7.10
2023-04-29T16:16:06.563Z,12.47
2023-04-29T16:18:37.395Z,11.80
2023-04-29T16:21:09.427Z,10.00
2023-04-29T16:23:39.929Z,15.88
2023-04-29T16:26:10.531Z,14.20
2023-04-29T16:28:39.754Z,12.48
2023-04-29T16:31:08.730Z,13.47
2023-04-29T16:33:38.277Z,12.10
2023-04-29T16:36:09.877Z,18.23
2023-04-29T16:38:39.243Z,12.47
2023-04-29T16:41:08.361Z,10.23
2023-04-29T16:43:39.723Z,12.90
2023-04-29T16:46:08.974Z,12.10
2023-04-29T16:48:38.999Z,14.50
2023-04-29T16:51:10.259Z,13.40
2023-04-29T16:53:39.774Z,15.87
2023-04-29T16:56:10.432Z,14.37
2023-04-29T16:58:39.431Z,14.33
2023-04-29T17:01:10.334Z,18.33
2023-04-29T17:03:39.959Z,32.43
2023-04-29T17:06:11.218Z,13.97
2023-04-29T17:08:40.868Z,15.03
2023-04-29T17:11:11.032Z,16.43
2023-04-29T17:13:39.952Z,15.07
2023-04-29T17:16:10.957Z,16.50
2023-04-29T17:18:40.362Z,16.00
2023-04-29T17:21:10.554Z,15.33
2023-04-29T17:23:39.414Z,16.70
2023-04-29T17:26:09.192Z,15.00
2023-04-29T17:28:40.199Z,15.93
2023-04-29T17:31:10.879Z,16.03
2023-04-29T17:33:40.101Z,21.73
2023-04-29T17:36:11.569Z,14.83
2023-04-29T17:38:41.684Z,21.07
2023-04-29T17:41:10.657Z,17.10
2023-04-29T17:43:41.603Z,20.00
2023-04-29T17:46:11.748Z,16.07
2023-04-29T17:48:41.370Z,28.03
2023-04-29T17:51:12.793Z,20.77
2023-04-29T17:53:42.515Z,23.10
2023-04-29T17:56:12.302Z,22.60
2023-04-29T17:58:41.135Z,27.13
2023-04-29T18:01:11.180Z,21.67
2023-04-29T18:03:40.238Z,23.97
2023-04-29T18:06:10.086Z,25.60
2023-04-29T18:08:39.598Z,20.37
2023-04-29T18:11:09.037Z,19.47
2023-04-29T18:13:38.320Z,22.13
2023-04-29T18:16:08.636Z,22.30
2023-04-29T18:18:38.267Z,25.77
2023-04-29T18:21:08.121Z,23.43
2023-04-29T18:23:39.457Z,23.90
2023-04-29T18:26:10.273Z,30.20
2023-04-29T18:28:40.089Z,32.10
2023-04-29T18:31:09.002Z,22.33
2023-04-29T18:33:38.658Z,22.80
2023-04-29T18:36:09.425Z,25.07
2023-04-29T18:38:39.871Z,23.13
2023-04-29T18:41:10.128Z,24.43
2023-04-29T18:43:39.724Z,26.40
2023-04-29T18:46:08.250Z,24.63
2023-04-29T18:48:39.001Z,22.03
2023-04-29T18:51:09.268Z,24.30
2023-04-29T18:53:41.193Z,21.77
2023-04-29T18:56:10.592Z,25.87
2023-04-29T18:58:39.833Z,22.90
2023-04-29T19:01:09.260Z,28.03
2023-04-29T19:03:38.990Z,25.13
2023-04-29T19:06:09.305Z,22.60
2023-04-29T19:08:39.514Z,24.70
2023-04-29T19:11:09.636Z,19.37
2023-04-29T19:13:39.674Z,22.13
2023-04-29T19:16:09.826Z,25.47
2023-04-29T19:18:39.179Z,22.47
2023-04-29T19:21:08.836Z,24.33
2023-04-29T19:23:39.702Z,22.20
2023-04-29T19:26:11.973Z,26.73
2023-04-29T19:28:41.422Z,21.13
2023-04-29T19:31:11.509Z,27.40
2023-04-29T19:33:40.021Z,27.43
2023-04-29T19:36:08.504Z,24.70
2023-04-29T19:38:39.433Z,22.80
2023-04-29T19:41:08.422Z,23.33
2023-04-29T19:43:37.418Z,24.50
2023-04-29T19:46:06.969Z,30.27
2023-04-29T19:48:36.041Z,25.73
2023-04-29T19:51:08.011Z,35.23
2023-04-29T19:53:38.688Z,25.37
2023-04-29T19:56:08.688Z,43.10
2023-04-29T19:58:37.673Z,30.83
2023-04-29T20:01:07.737Z,25.83
2023-04-29T20:03:39.411Z,31.87
2023-04-29T20:06:10.745Z,27.10
2023-04-29T20:08:42.175Z,27.33
2023-04-29T20:11:11.577Z,27.33
2023-04-29T20:13:40.116Z,30.17
2023-04-29T20:16:11.148Z,30.27
2023-04-29T20:18:41.300Z,29.00
2023-04-29T20:21:11.260Z,27.77
2023-04-29T20:23:43.120Z,31.27
2023-04-29T20:26:13.207Z,34.13
2023-04-29T20:28:42.800Z,29.40
2023-04-29T20:31:12.721Z,31.60
2023-04-29T20:33:42.803Z,26.80
2023-04-29T20:36:12.755Z,32.53
2023-04-29T20:38:44.962Z,32.30
2023-04-29T20:41:13.882Z,30.67
2023-04-29T20:43:43.487Z,36.17
2023-04-29T20:46:14.078Z,32.97
2023-04-29T20:48:44.128Z,37.83
2023-04-29T20:51:14.195Z,32.90
2023-04-29T20:53:45.771Z,33.77
2023-04-29T20:56:16.822Z,27.63
2023-04-29T20:58:46.813Z,26.07
2023-04-29T21:01:15.774Z,30.20
2023-04-29T21:03:46.284Z,31.73
2023-04-29T21:06:15.712Z,31.00
2023-04-29T21:08:46.224Z,32.00
2023-04-29T21:11:15.850Z,34.93
2023-04-29T21:13:49.881Z,24.57
2023-04-29T21:16:19.574Z,29.83
2023-04-29T21:18:49.046Z,29.13
2023-04-29T21:21:19.063Z,28.23
2023-04-29T21:23:49.822Z,27.90
2023-04-29T21:26:20.347Z,32.87
2023-04-29T21:28:49.825Z,35.77
2023-04-29T21:31:20.331Z,34.37
2023-04-29T21:33:50.246Z,31.50
2023-04-29T21:36:19.331Z,34.00
2023-04-29T21:38:51.221Z,28.47
2023-04-29T21:41:25.514Z,34.97
2023-04-29T21:43:55.517Z,31.33
2023-04-29T21:46:26.486Z,29.53
2023-04-29T21:48:56.360Z,36.60
2023-04-29T21:51:26.197Z,27.83
2023-04-29T21:53:57.190Z,28.13
2023-04-29T21:56:26.277Z,31.17
2023-04-29T21:58:55.732Z,33.60
2023-04-29T22:01:40.430Z,30.97
2023-04-29T22:04:09.928Z,30.60
2023-04-29T22:06:39.719Z,35.63
2023-04-29T22:09:10.494Z,29.40
2023-04-29T22:11:39.907Z,26.80
2023-04-29T22:14:08.828Z,34.60
2023-04-29T22:16:38.827Z,25.57
2023-04-29T22:19:08.765Z,27.77
2023-04-29T22:21:38.183Z,30.83
2023-04-29T22:24:10.363Z,36.37
2023-04-29T22:26:39.364Z,32.10
2023-04-29T22:29:09.031Z,29.60
2023-04-29T22:31:40.002Z,28.70
2023-04-29T22:34:09.015Z,42.30
2023-04-29T22:36:40.482Z,35.23
2023-04-29T22:39:10.831Z,26.77
2023-04-29T22:41:40.839Z,32.77
2023-04-29T22:44:09.743Z,28.07
2023-04-29T22:46:39.047Z,31.63
2023-04-29T22:49:08.350Z,27.80
2023-04-29T22:51:37.767Z,28.70
2023-04-29T22:54:10.977Z,27.97
2023-04-29T22:56:39.911Z,29.77
2023-04-29T22:59:10.140Z,28.00
2023-04-29T23:01:39.705Z,24.80
2023-04-29T23:04:09.317Z,33.23
2023-04-29T23:06:39.624Z,26.73
2023-04-29T23:09:10.093Z,35.90
2023-04-29T23:11:39.513Z,26.27
2023-04-29T23:14:09.459Z,29.83
2023-04-29T23:16:39.643Z,25.77
2023-04-29T23:19:09.412Z,25.83
2023-04-29T23:21:37.778Z,28.20
2023-04-29T23:24:10.450Z,29.83
2023-04-29T23:26:40.548Z,26.80
2023-04-29T23:29:09.438Z,34.00
2023-04-29T23:31:39.014Z,29.63
2023-04-29T23:34:08.829Z,32.03
2023-04-29T23:36:38.177Z,23.73
2023-04-29T23:39:07.263Z,23.37
2023-04-29T23:41:38.080Z,18.63
2023-04-29T23:44:09.534Z,23.00
2023-04-29T23:46:39.244Z,31.80
2023-04-29T23:49:11.143Z,24.37
2023-04-29T23:51:41.231Z,27.53
2023-04-29T23:54:10.218Z,26.23
2023-04-29T23:56:41.045Z,23.70
2023-04-29T23:59:09.900Z,25.50
